createdAt,value
2019-05-18T00:01:41.537Z,5.42
2019-05-18T00:04:11.420Z,4.53
2019-05-18T00:06:41.381Z,4.83
2019-05-18T00:09:11.444Z,4.17
2019-05-18T00:11:41.396Z,5.12
2019-05-18T00:14:12.382Z,5.05
2019-05-18T00:16:42.235Z,5.28
2019-05-18T00:19:12.220Z,5.50
2019-05-18T00:21:42.192Z,4.87
2019-05-18T00:24:12.215Z,4.37
2019-05-18T00:26:42.293Z,5.47
2019-05-18T00:29:12.718Z,4.35
2019-05-18T00:31:43.092Z,4.45
2019-05-18T00:34:13.048Z,5.58
2019-05-18T00:36:42.772Z,5.00
2019-05-18T00:39:12.565Z,5.22
2019-05-18T00:41:45.375Z,5.12
2019-05-18T00:44:14.235Z,5.50
2019-05-18T00:46:44.615Z,5.40
2019-05-18T00:49:14.568Z,5.22
2019-05-18T00:51:44.532Z,5.12
2019-05-18T00:54:14.472Z,5.50
2019-05-18T00:56:44.332Z,5.30
2019-05-18T00:59:16.165Z,5.15
2019-05-18T01:01:46.342Z,4.83
2019-05-18T01:04:16.125Z,5.22
2019-05-18T01:06:45.958Z,5.10
2019-05-18T01:09:15.585Z,5.05
2019-05-18T01:11:45.268Z,5.72
2019-05-18T01:14:15.184Z,5.57
2019-05-18T01:16:44.859Z,5.30
2019-05-18T01:19:14.484Z,6.17
2019-05-18T01:21:44.403Z,5.33
2019-05-18T01:24:14.196Z,5.95
2019-05-18T01:26:44.140Z,5.22
2019-05-18T01:29:14.023Z,5.03
2019-05-18T01:31:44.077Z,5.40
2019-05-18T01:34:14.365Z,5.20
2019-05-18T01:36:44.498Z,5.47
2019-05-18T01:39:14.404Z,5.37
2019-05-18T01:41:44.443Z,5.50
2019-05-18T01:44:14.416Z,6.28
2019-05-18T01:46:44.084Z,6.15
2019-05-18T01:49:14.049Z,5.20
2019-05-18T01:51:43.724Z,5.30
2019-05-18T01:54:13.389Z,4.28
2019-05-18T01:56:43.211Z,5.12
2019-05-18T01:59:12.855Z,5.60
2019-05-18T02:01:42.533Z,5.80
2019-05-18T02:04:12.164Z,5.37
2019-05-18T02:06:41.847Z,5.60
2019-05-18T02:09:11.580Z,6.13
2019-05-18T02:11:41.260Z,5.35
2019-05-18T02:14:10.965Z,4.92
2019-05-18T02:16:40.776Z,5.47
2019-05-18T02:19:10.565Z,4.62
2019-05-18T02:21:40.412Z,5.12
2019-05-18T02:24:10.109Z,5.40
2019-05-18T02:26:39.766Z,5.60
2019-05-18T02:29:09.755Z,5.10
2019-05-18T02:31:39.420Z,5.03
2019-05-18T02:34:09.189Z,5.37
2019-05-18T02:36:38.877Z,5.17
2019-05-18T02:39:09.357Z,5.30
2019-05-18T02:41:39.028Z,5.15
2019-05-18T02:44:08.722Z,5.43
2019-05-18T02:46:38.402Z,5.80
2019-05-18T02:49:08.410Z,5.60
2019-05-18T02:51:38.084Z,5.80
2019-05-18T02:54:08.161Z,5.85
2019-05-18T02:56:37.930Z,5.05
2019-05-18T02:59:07.563Z,6.33
2019-05-18T03:01:37.228Z,5.70
2019-05-18T03:04:07.410Z,5.75
2019-05-18T03:06:37.132Z,6.08
2019-05-18T03:09:07.623Z,5.03
2019-05-18T03:11:37.356Z,5.33
2019-05-18T03:14:07.451Z,5.75
2019-05-18T03:16:37.573Z,4.92
2019-05-18T03:19:09.122Z,5.78
2019-05-18T03:21:39.338Z,6.12
2019-05-18T03:24:09.020Z,5.65
2019-05-18T03:26:39.064Z,5.28
2019-05-18T03:29:08.731Z,5.50
2019-05-18T03:31:38.384Z,5.35
2019-05-18T03:34:08.149Z,5.50
2019-05-18T03:36:37.992Z,5.10
2019-05-18T03:39:08.060Z,5.87
2019-05-18T03:41:37.704Z,5.35
2019-05-18T03:44:07.379Z,6.10
2019-05-18T03:46:37.078Z,5.55
2019-05-18T03:49:23.663Z,5.75
2019-05-18T03:51:38.311Z,4.30
2019-05-18T03:54:08.029Z,5.58
2019-05-18T03:56:37.829Z,5.67
2019-05-18T03:59:07.525Z,4.95
2019-05-18T04:01:37.350Z,5.17
2019-05-18T04:04:07.060Z,4.53
2019-05-18T04:06:36.857Z,5.03
2019-05-18T04:09:07.428Z,5.70
2019-05-18T04:11:37.052Z,5.20
2019-05-18T04:14:08.470Z,5.33
2019-05-18T04:16:38.424Z,5.03
2019-05-18T04:19:08.084Z,5.35
2019-05-18T04:21:37.735Z,5.15
2019-05-18T04:24:07.710Z,5.25
2019-05-18T04:26:37.362Z,4.80
2019-05-18T04:29:07.362Z,4.78
2019-05-18T04:31:36.944Z,5.12
2019-05-18T04:34:06.888Z,4.87
2019-05-18T04:36:36.605Z,5.10
2019-05-18T04:39:07.171Z,5.42
2019-05-18T04:41:39.074Z,5.53
2019-05-18T04:44:09.414Z,4.37
2019-05-18T04:46:39.298Z,5.30
2019-05-18T04:49:09.282Z,5.53
2019-05-18T04:51:39.113Z,6.07
2019-05-18T04:54:09.127Z,5.25
2019-05-18T04:56:42.711Z,5.75
2019-05-18T04:59:10.673Z,5.25
2019-05-18T05:01:40.756Z,4.12
2019-05-18T05:04:10.775Z,5.40
2019-05-18T05:06:40.756Z,6.58
2019-05-18T05:09:10.684Z,5.50
2019-05-18T05:11:40.463Z,5.62
2019-05-18T05:14:10.371Z,5.62
2019-05-18T05:16:40.489Z,4.75
2019-05-18T05:19:10.673Z,4.78
2019-05-18T05:21:40.643Z,5.40
2019-05-18T05:24:10.908Z,4.80
2019-05-18T05:26:41.005Z,6.20
2019-05-18T05:29:11.032Z,5.65
2019-05-18T05:31:41.124Z,5.00
2019-05-18T05:34:11.200Z,5.42
2019-05-18T05:36:41.161Z,6.22
2019-05-18T05:39:11.789Z,5.40
2019-05-18T05:41:41.428Z,5.90
2019-05-18T05:44:11.447Z,5.65
2019-05-18T05:46:41.093Z,5.87
2019-05-18T05:49:11.180Z,5.80
2019-05-18T05:51:40.802Z,5.47
2019-05-18T05:54:10.910Z,5.28
2019-05-18T05:56:40.534Z,5.10
2019-05-18T05:59:11.043Z,5.33
2019-05-18T06:01:41.661Z,5.78
2019-05-18T06:04:13.939Z,5.58
2019-05-18T06:06:43.706Z,5.10
2019-05-18T06:09:13.932Z,4.93
2019-05-18T06:11:43.987Z,4.97
2019-05-18T06:14:13.824Z,5.90
2019-05-18T06:16:43.866Z,5.87
2019-05-18T06:19:13.676Z,6.07
2019-05-18T06:21:43.380Z,5.17
2019-05-18T06:24:13.407Z,5.70
2019-05-18T06:26:43.047Z,5.80
2019-05-18T06:29:12.967Z,5.67
2019-05-18T06:31:42.608Z,5.10
2019-05-18T06:34:12.862Z,6.03
2019-05-18T06:36:42.545Z,5.60
2019-05-18T06:39:12.837Z,5.35
2019-05-18T06:41:42.716Z,5.37
2019-05-18T06:44:12.817Z,5.15
2019-05-18T06:46:42.851Z,5.25
2019-05-18T06:49:12.697Z,6.20
2019-05-18T06:51:42.467Z,6.42
2019-05-18T06:54:12.419Z,5.37
2019-05-18T06:56:42.924Z,5.92
2019-05-18T06:59:16.339Z,6.10
2019-05-18T07:01:45.715Z,5.92
2019-05-18T07:04:15.456Z,5.78
2019-05-18T07:06:45.335Z,6.67
2019-05-18T07:09:15.437Z,7.67
2019-05-18T07:11:45.835Z,6.55
2019-05-18T07:14:25.257Z,5.70
2019-05-18T07:16:47.248Z,8.03
2019-05-18T07:19:17.617Z,7.80
2019-05-18T07:21:48.705Z,7.70
2019-05-18T07:24:18.964Z,8.20
2019-05-18T07:26:49.985Z,7.60
2019-05-18T07:29:20.232Z,7.90
2019-05-18T07:31:50.822Z,8.55
2019-05-18T07:34:25.986Z,8.23
2019-05-18T07:36:55.253Z,7.17
2019-05-18T07:39:25.324Z,8.48
2019-05-18T07:41:55.491Z,7.42
2019-05-18T07:44:26.263Z,6.65
2019-05-18T07:46:56.453Z,6.17
2019-05-18T07:49:27.233Z,7.27
2019-05-18T07:51:57.351Z,6.93
2019-05-18T07:54:27.571Z,7.45
2019-05-18T07:56:57.192Z,5.80
2019-05-18T07:59:26.333Z,6.25
2019-05-18T08:01:56.248Z,6.53
2019-05-18T08:04:26.104Z,5.43
2019-05-18T08:06:55.747Z,6.40
2019-05-18T08:09:26.970Z,7.50
2019-05-18T08:11:56.946Z,6.28
2019-05-18T08:14:26.772Z,6.35
2019-05-18T08:16:56.543Z,6.72
2019-05-18T08:19:27.609Z,7.22
2019-05-18T08:21:56.712Z,6.60
2019-05-18T08:24:26.551Z,6.42
2019-05-18T08:26:56.924Z,8.30
2019-05-18T08:29:28.296Z,6.00
2019-05-18T08:31:57.323Z,6.80
2019-05-18T08:34:26.294Z,6.65
2019-05-18T08:36:55.892Z,6.03
2019-05-18T08:39:25.455Z,6.35
2019-05-18T08:41:57.901Z,6.72
2019-05-18T08:44:27.570Z,6.83
2019-05-18T08:46:57.447Z,5.25
2019-05-18T08:49:27.132Z,4.97
2019-05-18T08:52:07.838Z,7.28
2019-05-18T08:54:27.984Z,5.75
2019-05-18T08:56:57.611Z,6.72
2019-05-18T08:59:29.226Z,6.65
2019-05-18T09:01:59.610Z,7.45
2019-05-18T09:04:30.459Z,7.17
2019-05-18T09:06:59.990Z,6.85
2019-05-18T09:09:30.095Z,6.85
2019-05-18T09:11:59.689Z,7.20
2019-05-18T09:14:29.324Z,7.30
2019-05-18T09:16:58.920Z,6.95
2019-05-18T09:19:28.505Z,5.90
2019-05-18T09:21:58.443Z,6.75
2019-05-18T09:24:28.362Z,5.20
2019-05-18T09:26:58.945Z,6.90
2019-05-18T09:29:28.586Z,6.53
2019-05-18T09:31:58.161Z,6.15
2019-05-18T09:34:28.592Z,6.92
2019-05-18T09:36:59.091Z,6.50
2019-05-18T09:39:28.747Z,6.70
2019-05-18T09:41:58.439Z,7.12
2019-05-18T09:44:28.047Z,6.57
2019-05-18T09:46:57.716Z,6.53
2019-05-18T09:49:27.786Z,6.55
2019-05-18T09:51:57.725Z,6.55
2019-05-18T09:54:27.360Z,4.90
2019-05-18T09:56:57.016Z,6.92
2019-05-18T09:59:26.673Z,5.85
2019-05-18T10:01:56.347Z,5.35
2019-05-18T10:04:25.983Z,6.57
2019-05-18T10:06:56.061Z,6.85
2019-05-18T10:09:26.158Z,6.50
2019-05-18T10:11:55.866Z,5.67
2019-05-18T10:14:26.156Z,6.17
2019-05-18T10:16:55.824Z,6.45
2019-05-18T10:19:25.551Z,6.22
2019-05-18T10:21:55.355Z,5.97
2019-05-18T10:24:25.004Z,5.62
2019-05-18T10:26:54.987Z,5.87
2019-05-18T10:29:24.780Z,7.20
2019-05-18T10:31:54.505Z,5.23
2019-05-18T10:34:24.322Z,5.72
2019-05-18T10:36:54.228Z,5.50
2019-05-18T10:39:23.873Z,5.62
2019-05-18T10:41:53.567Z,5.95
2019-05-18T10:44:23.214Z,5.20
2019-05-18T10:46:53.383Z,5.70
2019-05-18T10:49:23.257Z,5.78
2019-05-18T10:51:52.940Z,6.12
2019-05-18T10:54:23.119Z,6.67
2019-05-18T10:56:52.836Z,5.17
2019-05-18T10:59:22.411Z,5.12
2019-05-18T11:01:52.119Z,6.50
2019-05-18T11:04:21.768Z,6.72
2019-05-18T11:06:51.491Z,6.08
2019-05-18T11:09:21.568Z,6.47
2019-05-18T11:11:51.278Z,5.83
2019-05-18T11:14:20.977Z,4.30
2019-05-18T11:16:50.924Z,5.35
2019-05-18T11:19:20.833Z,4.17
2019-05-18T11:21:50.541Z,5.72
2019-05-18T11:24:20.325Z,5.13
2019-05-18T11:26:50.039Z,4.10
2019-05-18T11:29:23.332Z,5.72
2019-05-18T11:31:51.615Z,4.90
2019-05-18T11:34:21.727Z,4.58
2019-05-18T11:36:51.499Z,5.42
2019-05-18T11:39:21.445Z,5.10
2019-05-18T11:41:51.161Z,5.05
2019-05-18T11:44:20.837Z,5.83
2019-05-18T11:46:50.539Z,4.72
2019-05-18T11:49:20.387Z,5.73
2019-05-18T11:51:50.099Z,5.20
2019-05-18T11:54:19.927Z,5.83
2019-05-18T11:56:49.650Z,4.35
2019-05-18T11:59:19.643Z,5.80
2019-05-18T12:01:49.361Z,5.50
2019-05-18T12:04:21.808Z,4.92
2019-05-18T12:06:52.161Z,5.25
2019-05-18T12:09:22.869Z,5.28
2019-05-18T12:11:52.561Z,4.90
2019-05-18T12:14:22.508Z,4.85
2019-05-18T12:16:52.223Z,5.00
2019-05-18T12:19:21.878Z,4.15
2019-05-18T12:21:51.613Z,4.60
2019-05-18T12:24:21.261Z,4.65
2019-05-18T12:26:51.826Z,4.75
2019-05-18T12:29:22.052Z,5.05
2019-05-18T12:31:52.574Z,4.53
2019-05-18T12:34:22.646Z,4.35
2019-05-18T12:36:52.700Z,4.55
2019-05-18T12:39:22.670Z,4.10
2019-05-18T12:41:52.385Z,4.42
2019-05-18T12:44:22.203Z,3.47
2019-05-18T12:46:51.940Z,3.80
2019-05-18T12:49:22.025Z,4.13
2019-05-18T12:51:51.872Z,4.42
2019-05-18T12:54:30.935Z,3.55
2019-05-18T12:56:53.354Z,3.77
2019-05-18T12:59:23.527Z,3.37
2019-05-18T13:01:53.586Z,3.33
2019-05-18T13:04:24.048Z,3.93
2019-05-18T13:06:54.058Z,3.10
2019-05-18T13:09:24.592Z,3.30
2019-05-18T13:11:54.259Z,3.55
2019-05-18T13:14:24.281Z,3.20
2019-05-18T13:16:54.532Z,3.37
2019-05-18T13:19:24.813Z,3.33
2019-05-18T13:21:55.532Z,4.05
2019-05-18T13:24:25.671Z,3.40
2019-05-18T13:26:55.931Z,3.90
2019-05-18T13:29:26.210Z,4.12
2019-05-18T13:31:56.462Z,3.80
2019-05-18T13:34:26.352Z,3.40
2019-05-18T13:36:56.456Z,3.27
2019-05-18T13:39:26.464Z,3.37
2019-05-18T13:41:56.569Z,3.35
2019-05-18T13:44:26.442Z,3.22
2019-05-18T13:46:56.918Z,3.72
2019-05-18T13:49:27.063Z,3.40
2019-05-18T13:51:57.031Z,3.40
2019-05-18T13:54:26.994Z,3.37
2019-05-18T13:56:56.866Z,3.65
2019-05-18T13:59:26.922Z,3.60
2019-05-18T14:01:57.006Z,3.15
2019-05-18T14:04:26.977Z,3.52
2019-05-18T14:06:56.952Z,3.45
2019-05-18T14:09:26.891Z,3.30
2019-05-18T14:11:56.883Z,3.62
2019-05-18T14:14:26.932Z,3.08
2019-05-18T14:16:56.910Z,3.20
2019-05-18T14:19:26.891Z,3.00
2019-05-18T14:21:56.530Z,3.25
2019-05-18T14:24:26.756Z,3.65
2019-05-18T14:26:57.194Z,3.70
2019-05-18T14:29:27.230Z,3.30
2019-05-18T14:31:56.930Z,3.65
2019-05-18T14:34:27.159Z,3.00
2019-05-18T14:36:57.238Z,3.10
2019-05-18T14:39:27.391Z,3.05
2019-05-18T14:41:57.474Z,2.90
2019-05-18T14:44:27.527Z,2.72
2019-05-18T14:46:57.506Z,3.20
2019-05-18T14:49:28.754Z,3.05
2019-05-18T14:51:58.916Z,5.40
2019-05-18T14:54:28.822Z,3.30
2019-05-18T14:56:58.827Z,3.20
2019-05-18T14:59:29.058Z,2.75
2019-05-18T15:01:59.048Z,2.37
2019-05-18T15:04:29.102Z,2.60
2019-05-18T15:06:59.454Z,2.57
2019-05-18T15:09:29.177Z,2.35
2019-05-18T15:11:59.522Z,3.20
2019-05-18T15:14:29.258Z,2.65
2019-05-18T15:16:59.447Z,2.57
2019-05-18T15:19:29.141Z,2.80
2019-05-18T15:21:59.080Z,2.27
2019-05-18T15:24:29.017Z,2.20
2019-05-18T15:26:59.001Z,2.40
2019-05-18T15:29:28.851Z,2.50
2019-05-18T15:31:58.631Z,2.10
2019-05-18T15:34:28.576Z,2.30
2019-05-18T15:36:58.675Z,2.00
2019-05-18T15:39:28.618Z,2.00
2019-05-18T15:41:58.703Z,1.80
2019-05-18T15:44:28.769Z,1.90
2019-05-18T15:46:58.847Z,1.75
2019-05-18T15:49:28.898Z,1.90
2019-05-18T15:51:58.867Z,1.77
2019-05-18T15:54:28.916Z,1.82
2019-05-18T15:56:58.687Z,2.02
2019-05-18T15:59:28.543Z,2.40
2019-05-18T16:01:58.207Z,2.53
2019-05-18T16:04:28.166Z,2.20
2019-05-18T16:06:57.822Z,2.37
2019-05-18T16:09:27.787Z,2.27
2019-05-18T16:11:57.643Z,2.65
2019-05-18T16:14:27.539Z,2.25
2019-05-18T16:16:57.599Z,2.20
2019-05-18T16:19:27.556Z,2.00
2019-05-18T16:21:57.730Z,1.62
2019-05-18T16:24:27.746Z,1.62
2019-05-18T16:26:57.810Z,2.40
2019-05-18T16:29:27.821Z,3.37
2019-05-18T16:31:57.794Z,1.98
2019-05-18T16:34:27.754Z,1.72
2019-05-18T16:37:00.731Z,1.60
2019-05-18T16:39:29.886Z,1.72
2019-05-18T16:41:59.912Z,1.75
2019-05-18T16:44:29.860Z,2.00
2019-05-18T16:47:00.249Z,1.80
2019-05-18T16:49:29.975Z,1.80
2019-05-18T16:51:59.901Z,1.80
2019-05-18T16:54:29.721Z,1.87
2019-05-18T16:56:59.599Z,1.77
2019-05-18T16:59:29.617Z,1.80
2019-05-18T17:01:59.535Z,1.67
2019-05-18T17:04:29.239Z,2.10
2019-05-18T17:06:59.162Z,4.30
2019-05-18T17:09:29.011Z,2.60
2019-05-18T17:11:59.151Z,2.90
2019-05-18T17:14:29.587Z,2.62
2019-05-18T17:16:59.421Z,3.45
2019-05-18T17:19:29.890Z,3.07
2019-05-18T17:21:59.147Z,2.92
2019-05-18T17:24:29.418Z,2.77
2019-05-18T17:26:59.098Z,2.10
2019-05-18T17:29:29.138Z,2.42
2019-05-18T17:31:58.799Z,2.62
2019-05-18T17:34:28.959Z,2.33
2019-05-18T17:36:58.666Z,2.55
2019-05-18T17:39:29.246Z,2.45
2019-05-18T17:41:59.350Z,2.73
2019-05-18T17:44:29.446Z,2.60
2019-05-18T17:46:59.520Z,2.80
2019-05-18T17:49:32.445Z,3.27
2019-05-18T17:52:02.523Z,2.50
2019-05-18T17:54:32.982Z,2.80
2019-05-18T17:57:08.503Z,2.30
2019-05-18T17:59:36.473Z,2.27
2019-05-18T18:02:06.978Z,2.70
2019-05-18T18:04:37.678Z,1.90
2019-05-18T18:07:08.768Z,1.82
2019-05-18T18:09:38.718Z,2.00
2019-05-18T18:12:09.185Z,2.00
2019-05-18T18:14:38.891Z,1.90
2019-05-18T18:17:08.730Z,2.00
2019-05-18T18:19:38.400Z,1.90
2019-05-18T18:22:08.902Z,2.20
2019-05-18T18:24:38.570Z,4.08
2019-05-18T18:27:22.728Z,2.95
2019-05-18T18:29:40.346Z,2.33
2019-05-18T18:32:11.034Z,2.83
2019-05-18T18:34:41.297Z,2.80
2019-05-18T18:37:11.166Z,2.20
2019-05-18T18:39:41.140Z,2.02
2019-05-18T18:42:10.830Z,2.50
2019-05-18T18:44:40.645Z,2.20
2019-05-18T18:47:10.518Z,2.95
2019-05-18T18:49:40.190Z,2.62
2019-05-18T18:52:09.910Z,3.10
2019-05-18T18:54:39.572Z,3.20
2019-05-18T18:57:09.266Z,3.22
2019-05-18T18:59:39.427Z,3.25
2019-05-18T19:02:09.267Z,3.47
2019-05-18T19:04:38.926Z,3.25
2019-05-18T19:07:09.311Z,3.00
2019-05-18T19:09:39.485Z,2.65
2019-05-18T19:12:09.185Z,3.30
2019-05-18T19:14:39.039Z,2.10
2019-05-18T19:17:08.772Z,2.80
2019-05-18T19:19:40.243Z,3.05
2019-05-18T19:22:10.121Z,2.53
2019-05-18T19:24:40.209Z,2.40
2019-05-18T19:27:09.926Z,2.20
2019-05-18T19:29:40.008Z,2.50
2019-05-18T19:32:10.124Z,2.20
2019-05-18T19:34:39.790Z,2.40
2019-05-18T19:37:09.946Z,2.60
2019-05-18T19:39:39.817Z,2.65
2019-05-18T19:42:09.927Z,2.87
2019-05-18T19:44:39.615Z,3.75
2019-05-18T19:47:09.339Z,2.47
2019-05-18T19:49:39.020Z,2.50
2019-05-18T19:52:09.126Z,2.58
2019-05-18T19:54:38.800Z,2.40
2019-05-18T19:57:08.545Z,2.70
2019-05-18T19:59:38.190Z,2.80
2019-05-18T20:02:08.402Z,2.73
2019-05-18T20:04:38.102Z,2.75
2019-05-18T20:07:08.655Z,3.03
2019-05-18T20:09:38.787Z,3.27
2019-05-18T20:12:08.461Z,2.60
2019-05-18T20:14:38.133Z,3.17
2019-05-18T20:17:07.866Z,3.10
2019-05-18T20:19:39.591Z,2.90
2019-05-18T20:22:08.870Z,2.70
2019-05-18T20:24:38.533Z,2.83
2019-05-18T20:27:08.276Z,3.17
2019-05-18T20:29:37.962Z,2.70
2019-05-18T20:32:07.683Z,2.92
2019-05-18T20:34:37.349Z,3.20
2019-05-18T20:37:07.141Z,3.10
2019-05-18T20:39:36.851Z,3.00
2019-05-18T20:42:06.558Z,3.23
2019-05-18T20:44:36.219Z,4.33
2019-05-18T20:47:05.935Z,2.92
2019-05-18T20:49:35.809Z,4.10
2019-05-18T20:52:06.005Z,4.53
2019-05-18T20:54:35.850Z,5.58
2019-05-18T20:57:05.547Z,4.47
2019-05-18T20:59:35.614Z,3.87
2019-05-18T21:02:05.713Z,4.37
2019-05-18T21:04:35.386Z,4.25
2019-05-18T21:07:05.091Z,3.40
2019-05-18T21:09:34.770Z,3.37
2019-05-18T21:12:04.818Z,4.05
2019-05-18T21:14:34.511Z,3.90
2019-05-18T21:17:04.606Z,3.67
2019-05-18T21:19:34.464Z,2.62
2019-05-18T21:22:04.729Z,3.80
2019-05-18T21:24:34.574Z,3.00
2019-05-18T21:27:04.308Z,2.90
2019-05-18T21:29:34.014Z,3.02
2019-05-18T21:32:04.219Z,3.20
2019-05-18T21:34:34.074Z,2.80
2019-05-18T21:37:03.817Z,3.20
2019-05-18T21:39:33.482Z,2.83
2019-05-18T21:42:03.179Z,3.12
2019-05-18T21:44:33.259Z,2.70
2019-05-18T21:47:03.002Z,2.87
2019-05-18T21:49:33.382Z,3.12
2019-05-18T21:52:03.385Z,3.37
2019-05-18T21:54:35.297Z,3.23
2019-05-18T21:57:05.150Z,5.65
2019-05-18T21:59:35.297Z,5.72
2019-05-18T22:02:05.551Z,3.83
2019-05-18T22:04:35.737Z,4.37
2019-05-18T22:07:05.747Z,4.35
2019-05-18T22:09:35.827Z,4.15
2019-05-18T22:12:05.882Z,4.62
2019-05-18T22:14:35.811Z,4.85
2019-05-18T22:17:05.715Z,4.33
2019-05-18T22:19:36.379Z,4.10
2019-05-18T22:22:06.362Z,3.55
2019-05-18T22:24:36.110Z,4.42
2019-05-18T22:27:05.999Z,5.42
2019-05-18T22:29:35.711Z,5.10
2019-05-18T22:32:05.697Z,4.08
2019-05-18T22:34:35.671Z,4.40
2019-05-18T22:37:05.646Z,4.72
2019-05-18T22:39:35.559Z,4.83
2019-05-18T22:42:05.690Z,3.27
2019-05-18T22:44:35.626Z,3.60
2019-05-18T22:47:05.503Z,3.83
2019-05-18T22:49:35.854Z,3.72
2019-05-18T22:52:05.855Z,4.40
2019-05-18T22:54:35.807Z,4.00
2019-05-18T22:57:06.099Z,4.75
2019-05-18T22:59:36.202Z,4.58
2019-05-18T23:02:06.017Z,3.90
2019-05-18T23:04:36.266Z,4.28
2019-05-18T23:07:06.345Z,4.33
2019-05-18T23:09:36.512Z,4.47
2019-05-18T23:12:06.196Z,4.87
2019-05-18T23:14:36.026Z,3.85
2019-05-18T23:17:06.835Z,3.95
2019-05-18T23:19:37.282Z,4.50
2019-05-18T23:22:06.942Z,4.83
2019-05-18T23:24:37.159Z,3.58
2019-05-18T23:27:06.882Z,3.50
2019-05-18T23:29:37.050Z,3.67
2019-05-18T23:32:07.055Z,3.40
2019-05-18T23:34:36.985Z,3.60
2019-05-18T23:37:07.075Z,5.22
2019-05-18T23:39:37.125Z,3.62
2019-05-18T23:42:08.205Z,5.83
2019-05-18T23:44:39.142Z,3.33
2019-05-18T23:47:09.691Z,5.15
2019-05-18T23:49:40.149Z,6.58
2019-05-18T23:52:10.518Z,5.05
2019-05-18T23:54:41.384Z,5.60
2019-05-18T23:57:12.086Z,4.03
2019-05-18T23:59:42.585Z,3.33
